sensor_id;sensor_type;location;lat;lon;timestamp;pressure;altitude;pressure_sealevel;temperature;humidity
7532;BME280;3807;49.030;8.714;2023-12-14T00:02:21;98280.28;;;9.69;77.35
7532;BME280;3807;49.030;8.714;2023-12-14T00:04:46;98284.25;;;9.74;77.20
7532;BME280;3807;49.030;8.714;2023-12-14T00:07:11;98284.63;;;9.67;77.44
7532;BME280;3807;49.030;8.714;2023-12-14T00:09:40;98287.19;;;9.84;76.98
7532;BME280;3807;49.030;8.714;2023-12-14T00:12:05;98293.34;;;9.80;77.14
7532;BME280;3807;49.030;8.714;2023-12-14T00:14:31;98292.75;;;9.92;76.59
7532;BME280;3807;49.030;8.714;2023-12-14T00:16:56;98298.06;;;9.88;76.95
7532;BME280;3807;49.030;8.714;2023-12-14T00:19:24;98295.75;;;9.64;77.60
7532;BME280;3807;49.030;8.714;2023-12-14T00:21:49;98306.50;;;9.88;76.89
7532;BME280;3807;49.030;8.714;2023-12-14T00:24:14;98306.78;;;9.82;76.65
7532;BME280;3807;49.030;8.714;2023-12-14T00:26:40;98308.59;;;9.80;76.87
7532;BME280;3807;49.030;8.714;2023-12-14T00:29:05;98312.34;;;9.90;76.88
7532;BME280;3807;49.030;8.714;2023-12-14T00:31:31;98320.72;;;9.92;76.28
7532;BME280;3807;49.030;8.714;2023-12-14T00:33:57;98315.72;;;9.72;77.20
7532;BME280;3807;49.030;8.714;2023-12-14T00:36:22;98318.06;;;9.76;77.50
7532;BME280;3807;49.030;8.714;2023-12-14T00:38:48;98329.06;;;9.77;76.99
7532;BME280;3807;49.030;8.714;2023-12-14T00:41:13;98324.81;;;9.77;77.27
7532;BME280;3807;49.030;8.714;2023-12-14T00:43:38;98327.63;;;9.71;77.30
7532;BME280;3807;49.030;8.714;2023-12-14T00:46:04;98333.47;;;9.73;77.98
7532;BME280;3807;49.030;8.714;2023-12-14T00:48:29;98331.59;;;9.77;77.14
7532;BME280;3807;49.030;8.714;2023-12-14T00:50:54;98333.66;;;9.69;77.46
7532;BME280;3807;49.030;8.714;2023-12-14T00:53:20;98335.31;;;9.70;77.14
7532;BME280;3807;49.030;8.714;2023-12-14T00:55:45;98342.59;;;9.77;77.26
7532;BME280;3807;49.030;8.714;2023-12-14T00:58:11;98351.03;;;9.78;77.15
7532;BME280;3807;49.030;8.714;2023-12-14T01:00:38;98361.13;;;9.79;78.12
7532;BME280;3807;49.030;8.714;2023-12-14T01:03:03;98360.53;;;9.74;77.58
7532;BME280;3807;49.030;8.714;2023-12-14T01:05:29;98375.16;;;9.88;77.29
7532;BME280;3807;49.030;8.714;2023-12-14T01:07:54;98371.38;;;9.78;77.49
7532;BME280;3807;49.030;8.714;2023-12-14T01:10:19;98371.84;;;9.86;76.35
7532;BME280;3807;49.030;8.714;2023-12-14T01:12:45;98381.56;;;9.59;77.51
7532;BME280;3807;49.030;8.714;2023-12-14T01:15:10;98397.63;;;9.78;76.70
7532;BME280;3807;49.030;8.714;2023-12-14T01:17:36;98398.78;;;9.71;76.84
7532;BME280;3807;49.030;8.714;2023-12-14T01:20:06;98400.13;;;9.80;77.73
7532;BME280;3807;49.030;8.714;2023-12-14T01:22:32;98406.06;;;9.79;76.86
7532;BME280;3807;49.030;8.714;2023-12-14T01:24:58;98408.22;;;9.88;76.22
7532;BME280;3807;49.030;8.714;2023-12-14T01:27:24;98414.81;;;9.73;77.10
7532;BME280;3807;49.030;8.714;2023-12-14T01:29:50;98414.34;;;9.84;77.13
7532;BME280;3807;49.030;8.714;2023-12-14T01:32:15;98416.72;;;9.68;76.97
7532;BME280;3807;49.030;8.714;2023-12-14T01:34:41;98421.84;;;9.87;76.76
7532;BME280;3807;49.030;8.714;2023-12-14T01:37:06;98428.28;;;9.94;76.17
7532;BME280;3807;49.030;8.714;2023-12-14T01:39:32;98430.63;;;9.80;76.97
7532;BME280;3807;49.030;8.714;2023-12-14T01:41:57;98436.31;;;9.85;76.86
7532;BME280;3807;49.030;8.714;2023-12-14T01:44:23;98431.78;;;9.73;77.15
7532;BME280;3807;49.030;8.714;2023-12-14T01:46:48;98439.81;;;9.83;77.13
7532;BME280;3807;49.030;8.714;2023-12-14T01:49:14;98438.94;;;9.84;77.35
7532;BME280;3807;49.030;8.714;2023-12-14T01:51:39;98449.25;;;9.81;76.35
7532;BME280;3807;49.030;8.714;2023-12-14T01:54:05;98453.84;;;9.91;76.58
7532;BME280;3807;49.030;8.714;2023-12-14T01:56:30;98450.53;;;9.89;76.14
7532;BME280;3807;49.030;8.714;2023-12-14T01:58:55;98456.63;;;9.87;76.16
7532;BME280;3807;49.030;8.714;2023-12-14T02:01:41;98459.56;;;9.77;76.45
7532;BME280;3807;49.030;8.714;2023-12-14T02:04:07;98461.41;;;9.74;77.21
7532;BME280;3807;49.030;8.714;2023-12-14T02:06:33;98466.22;;;9.80;76.82
7532;BME280;3807;49.030;8.714;2023-12-14T02:08:59;98463.88;;;9.75;76.86
7532;BME280;3807;49.030;8.714;2023-12-14T02:11:24;98478.59;;;9.88;76.13
7532;BME280;3807;49.030;8.714;2023-12-14T02:13:49;98468.97;;;9.94;76.19
7532;BME280;3807;49.030;8.714;2023-12-14T02:16:15;98478.47;;;9.91;75.72
7532;BME280;3807;49.030;8.714;2023-12-14T02:18:40;98476.66;;;9.93;76.46
7532;BME280;3807;49.030;8.714;2023-12-14T02:21:06;98477.88;;;9.65;76.86
7532;BME280;3807;49.030;8.714;2023-12-14T02:23:31;98481.44;;;9.61;76.93
7532;BME280;3807;49.030;8.714;2023-12-14T02:25:57;98479.06;;;9.77;77.11
7532;BME280;3807;49.030;8.714;2023-12-14T02:28:22;98481.47;;;9.80;77.02
7532;BME280;3807;49.030;8.714;2023-12-14T02:30:48;98479.16;;;9.94;75.83
7532;BME280;3807;49.030;8.714;2023-12-14T02:33:13;98483.88;;;9.83;76.78
7532;BME280;3807;49.030;8.714;2023-12-14T02:35:38;98484.25;;;9.94;76.43
7532;BME280;3807;49.030;8.714;2023-12-14T02:38:04;98484.50;;;9.88;77.09
7532;BME280;3807;49.030;8.714;2023-12-14T02:40:29;98486.28;;;9.86;76.41
7532;BME280;3807;49.030;8.714;2023-12-14T02:42:54;98492.91;;;9.90;76.66
7532;BME280;3807;49.030;8.714;2023-12-14T02:45:20;98494.13;;;9.82;76.62
7532;BME280;3807;49.030;8.714;2023-12-14T02:47:45;98500.06;;;9.62;77.43
7532;BME280;3807;49.030;8.714;2023-12-14T02:50:12;98505.94;;;9.83;76.17
7532;BME280;3807;49.030;8.714;2023-12-14T02:52:38;98510.78;;;9.68;76.90
7532;BME280;3807;49.030;8.714;2023-12-14T02:55:04;98517.47;;;9.71;77.14
7532;BME280;3807;49.030;8.714;2023-12-14T02:57:29;98514.47;;;9.82;76.56
7532;BME280;3807;49.030;8.714;2023-12-14T02:59:54;98516.13;;;9.62;77.41
7532;BME280;3807;49.030;8.714;2023-12-14T03:02:20;98521.28;;;9.61;77.49
7532;BME280;3807;49.030;8.714;2023-12-14T03:04:45;98521.59;;;9.73;76.81
7532;BME280;3807;49.030;8.714;2023-12-14T03:07:10;98523.94;;;9.78;76.83
7532;BME280;3807;49.030;8.714;2023-12-14T03:09:39;98531.94;;;9.69;76.80
7532;BME280;3807;49.030;8.714;2023-12-14T03:12:06;98535.56;;;9.84;76.23
7532;BME280;3807;49.030;8.714;2023-12-14T03:14:32;98533.63;;;9.70;78.01
7532;BME280;3807;49.030;8.714;2023-12-14T03:16:58;98537.59;;;9.75;76.75
7532;BME280;3807;49.030;8.714;2023-12-14T03:19:23;98539.63;;;9.88;76.38
7532;BME280;3807;49.030;8.714;2023-12-14T03:21:49;98543.47;;;9.77;76.67
7532;BME280;3807;49.030;8.714;2023-12-14T03:24:14;98545.75;;;9.84;75.85
7532;BME280;3807;49.030;8.714;2023-12-14T03:26:39;98550.13;;;9.80;76.67
7532;BME280;3807;49.030;8.714;2023-12-14T03:29:05;98559.03;;;9.90;75.91
7532;BME280;3807;49.030;8.714;2023-12-14T03:31:30;98558.06;;;9.72;76.31
7532;BME280;3807;49.030;8.714;2023-12-14T03:33:55;98555.91;;;9.84;76.86
7532;BME280;3807;49.030;8.714;2023-12-14T03:36:21;98562.56;;;9.86;75.92
7532;BME280;3807;49.030;8.714;2023-12-14T03:38:48;98561.94;;;9.81;76.29
7532;BME280;3807;49.030;8.714;2023-12-14T03:41:13;98560.81;;;9.68;76.95
7532;BME280;3807;49.030;8.714;2023-12-14T03:43:38;98566.84;;;9.86;76.82
7532;BME280;3807;49.030;8.714;2023-12-14T03:46:04;98576.13;;;9.87;77.19
7532;BME280;3807;49.030;8.714;2023-12-14T03:48:31;98571.28;;;9.81;76.40
7532;BME280;3807;49.030;8.714;2023-12-14T03:50:56;98578.22;;;9.77;77.10
7532;BME280;3807;49.030;8.714;2023-12-14T03:53:22;98582.91;;;9.86;76.20
7532;BME280;3807;49.030;8.714;2023-12-14T03:55:47;98591.63;;;9.60;77.24
7532;BME280;3807;49.030;8.714;2023-12-14T03:58:12;98592.00;;;9.92;76.77
7532;BME280;3807;49.030;8.714;2023-12-14T04:00:38;98601.56;;;9.66;77.17
7532;BME280;3807;49.030;8.714;2023-12-14T04:03:03;98609.06;;;9.69;77.92
7532;BME280;3807;49.030;8.714;2023-12-14T04:05:28;98614.06;;;9.71;77.40
7532;BME280;3807;49.030;8.714;2023-12-14T04:07:54;98621.63;;;9.72;77.24
7532;BME280;3807;49.030;8.714;2023-12-14T04:10:19;98619.59;;;9.60;77.59
7532;BME280;3807;49.030;8.714;2023-12-14T04:12:45;98630.03;;;9.74;77.04
7532;BME280;3807;49.030;8.714;2023-12-14T04:15:10;98632.78;;;9.70;76.99
7532;BME280;3807;49.030;8.714;2023-12-14T04:17:35;98635.75;;;9.59;78.08
7532;BME280;3807;49.030;8.714;2023-12-14T04:20:02;98634.66;;;9.65;77.44
7532;BME280;3807;49.030;8.714;2023-12-14T04:22:28;98637.03;;;9.69;77.33
7532;BME280;3807;49.030;8.714;2023-12-14T04:24:54;98645.50;;;9.90;76.49
7532;BME280;3807;49.030;8.714;2023-12-14T04:27:19;98645.34;;;9.73;77.83
7532;BME280;3807;49.030;8.714;2023-12-14T04:29:45;98652.72;;;9.79;77.63
7532;BME280;3807;49.030;8.714;2023-12-14T04:32:10;98653.59;;;9.78;77.24
7532;BME280;3807;49.030;8.714;2023-12-14T04:34:36;98651.56;;;9.86;77.35
7532;BME280;3807;49.030;8.714;2023-12-14T04:37:01;98658.72;;;9.98;77.22
7532;BME280;3807;49.030;8.714;2023-12-14T04:39:27;98663.16;;;9.73;77.56
7532;BME280;3807;49.030;8.714;2023-12-14T04:41:53;98659.91;;;9.90;77.74
7532;BME280;3807;49.030;8.714;2023-12-14T04:44:19;98657.09;;;9.96;76.59
7532;BME280;3807;49.030;8.714;2023-12-14T04:46:44;98659.38;;;9.61;77.51
7532;BME280;3807;49.030;8.714;2023-12-14T04:49:10;98666.72;;;9.89;77.09
7532;BME280;3807;49.030;8.714;2023-12-14T04:51:36;98681.25;;;9.86;76.34
7532;BME280;3807;49.030;8.714;2023-12-14T04:54:01;98675.63;;;9.99;76.44
7532;BME280;3807;49.030;8.714;2023-12-14T04:56:27;98683.63;;;9.90;76.33
7532;BME280;3807;49.030;8.714;2023-12-14T04:58:52;98681.47;;;9.81;77.08
7532;BME280;3807;49.030;8.714;2023-12-14T05:01:17;98683.25;;;9.99;76.04
7532;BME280;3807;49.030;8.714;2023-12-14T05:03:43;98693.66;;;9.73;76.87
7532;BME280;3807;49.030;8.714;2023-12-14T05:06:08;98694.75;;;9.88;76.50
7532;BME280;3807;49.030;8.714;2023-12-14T05:08:34;98701.56;;;9.87;76.68
7532;BME280;3807;49.030;8.714;2023-12-14T05:10:59;98716.69;;;9.90;76.58
7532;BME280;3807;49.030;8.714;2023-12-14T05:13:25;98722.06;;;9.83;76.81
7532;BME280;3807;49.030;8.714;2023-12-14T05:15:51;98728.75;;;9.85;77.25
7532;BME280;3807;49.030;8.714;2023-12-14T05:18:17;98728.75;;;9.85;77.60
7532;BME280;3807;49.030;8.714;2023-12-14T05:20:42;98732.94;;;9.86;76.94
7532;BME280;3807;49.030;8.714;2023-12-14T05:23:07;98738.22;;;9.82;77.01
7532;BME280;3807;49.030;8.714;2023-12-14T05:25:33;98749.19;;;9.84;76.86
7532;BME280;3807;49.030;8.714;2023-12-14T05:27:58;98746.03;;;9.77;77.28
7532;BME280;3807;49.030;8.714;2023-12-14T05:30:24;98754.06;;;9.88;76.92
7532;BME280;3807;49.030;8.714;2023-12-14T05:32:49;98765.06;;;9.89;76.58
7532;BME280;3807;49.030;8.714;2023-12-14T05:35:14;98766.91;;;9.85;77.23
7532;BME280;3807;49.030;8.714;2023-12-14T05:37:40;98766.47;;;9.96;76.28
7532;BME280;3807;49.030;8.714;2023-12-14T05:40:07;98766.97;;;9.84;76.83
7532;BME280;3807;49.030;8.714;2023-12-14T05:42:33;98767.56;;;9.90;76.30
7532;BME280;3807;49.030;8.714;2023-12-14T05:44:58;98770.84;;;9.92;76.52
7532;BME280;3807;49.030;8.714;2023-12-14T05:47:26;98773.16;;;9.98;75.90
7532;BME280;3807;49.030;8.714;2023-12-14T05:49:51;98785.19;;;9.73;77.29
7532;BME280;3807;49.030;8.714;2023-12-14T05:52:17;98786.72;;;9.99;76.28
7532;BME280;3807;49.030;8.714;2023-12-14T05:54:43;98783.56;;;9.92;77.02
7532;BME280;3807;49.030;8.714;2023-12-14T05:57:08;98791.63;;;9.82;76.65
7532;BME280;3807;49.030;8.714;2023-12-14T05:59:34;98801.69;;;9.85;76.82
7532;BME280;3807;49.030;8.714;2023-12-14T06:02:00;98795.47;;;9.92;77.25
7532;BME280;3807;49.030;8.714;2023-12-14T06:04:26;98800.97;;;10.03;77.02
7532;BME280;3807;49.030;8.714;2023-12-14T06:06:53;98804.44;;;10.00;77.04
7532;BME280;3807;49.030;8.714;2023-12-14T06:09:18;98808.13;;;10.15;76.45
7532;BME280;3807;49.030;8.714;2023-12-14T06:11:50;98816.44;;;9.97;77.54
7532;BME280;3807;49.030;8.714;2023-12-14T06:14:16;98820.25;;;9.87;77.90
7532;BME280;3807;49.030;8.714;2023-12-14T06:16:41;98822.13;;;10.03;75.69
7532;BME280;3807;49.030;8.714;2023-12-14T06:19:07;98825.88;;;9.95;76.69
7532;BME280;3807;49.030;8.714;2023-12-14T06:21:32;98834.91;;;10.02;76.04
7532;BME280;3807;49.030;8.714;2023-12-14T06:23:58;98836.41;;;9.86;76.62
7532;BME280;3807;49.030;8.714;2023-12-14T06:26:25;98842.38;;;9.85;77.20
7532;BME280;3807;49.030;8.714;2023-12-14T06:28:50;98847.03;;;9.73;77.56
7532;BME280;3807;49.030;8.714;2023-12-14T06:31:17;98857.44;;;9.67;77.66
7532;BME280;3807;49.030;8.714;2023-12-14T06:33:43;98860.63;;;9.72;77.49
7532;BME280;3807;49.030;8.714;2023-12-14T06:36:08;98865.38;;;9.82;77.35
7532;BME280;3807;49.030;8.714;2023-12-14T06:38:34;98857.72;;;9.60;77.92
7532;BME280;3807;49.030;8.714;2023-12-14T06:41:00;98868.13;;;9.75;77.94
7532;BME280;3807;49.030;8.714;2023-12-14T06:43:27;98877.75;;;9.91;78.45
7532;BME280;3807;49.030;8.714;2023-12-14T06:45:52;98874.63;;;9.84;77.85
7532;BME280;3807;49.030;8.714;2023-12-14T06:48:18;98871.41;;;9.79;77.51
7532;BME280;3807;49.030;8.714;2023-12-14T06:50:43;98873.19;;;9.99;77.69
7532;BME280;3807;49.030;8.714;2023-12-14T06:53:08;98881.47;;;10.04;77.74
7532;BME280;3807;49.030;8.714;2023-12-14T06:55:34;98888.38;;;10.00;77.57
7532;BME280;3807;49.030;8.714;2023-12-14T06:57:59;98890.28;;;9.95;78.50
7532;BME280;3807;49.030;8.714;2023-12-14T07:00:24;98905.63;;;9.94;77.87
7532;BME280;3807;49.030;8.714;2023-12-14T07:02:50;98910.13;;;9.86;77.61
7532;BME280;3807;49.030;8.714;2023-12-14T07:05:15;98910.41;;;10.01;76.81
7532;BME280;3807;49.030;8.714;2023-12-14T07:07:41;98917.41;;;9.73;77.69
7532;BME280;3807;49.030;8.714;2023-12-14T07:10:06;98924.56;;;9.62;78.44
7532;BME280;3807;49.030;8.714;2023-12-14T07:12:32;98936.16;;;9.70;77.44
7532;BME280;3807;49.030;8.714;2023-12-14T07:14:57;98943.38;;;9.58;77.98
7532;BME280;3807;49.030;8.714;2023-12-14T07:17:23;98945.75;;;9.86;77.54
7532;BME280;3807;49.030;8.714;2023-12-14T07:19:50;98940.72;;;9.61;78.70
7532;BME280;3807;49.030;8.714;2023-12-14T07:22:16;98944.38;;;9.77;78.71
7532;BME280;3807;49.030;8.714;2023-12-14T07:24:41;98953.28;;;9.89;78.08
7532;BME280;3807;49.030;8.714;2023-12-14T07:27:07;98953.94;;;9.70;78.10
7532;BME280;3807;49.030;8.714;2023-12-14T07:29:32;98955.22;;;9.82;77.33
7532;BME280;3807;49.030;8.714;2023-12-14T07:31:57;98958.09;;;9.73;77.86
7532;BME280;3807;49.030;8.714;2023-12-14T07:34:23;98962.72;;;9.62;78.15
7532;BME280;3807;49.030;8.714;2023-12-14T07:36:50;98979.03;;;9.79;77.90
7532;BME280;3807;49.030;8.714;2023-12-14T07:39:15;98974.06;;;9.76;77.75
7532;BME280;3807;49.030;8.714;2023-12-14T07:41:41;98971.75;;;9.94;77.14
7532;BME280;3807;49.030;8.714;2023-12-14T07:44:06;98979.91;;;9.78;77.45
7532;BME280;3807;49.030;8.714;2023-12-14T07:46:32;98984.19;;;10.01;77.21
7532;BME280;3807;49.030;8.714;2023-12-14T07:48:57;98995.28;;;9.99;77.80
7532;BME280;3807;49.030;8.714;2023-12-14T07:51:22;98994.56;;;9.72;77.68
7532;BME280;3807;49.030;8.714;2023-12-14T07:53:48;98998.44;;;10.06;77.05
7532;BME280;3807;49.030;8.714;2023-12-14T07:56:13;98999.66;;;9.95;77.28
7532;BME280;3807;49.030;8.714;2023-12-14T07:58:38;99009.53;;;10.05;76.67
7532;BME280;3807;49.030;8.714;2023-12-14T08:01:04;99008.94;;;9.96;77.24
7532;BME280;3807;49.030;8.714;2023-12-14T08:03:29;99017.19;;;10.03;76.96
7532;BME280;3807;49.030;8.714;2023-12-14T08:05:54;99017.41;;;9.97;78.26
7532;BME280;3807;49.030;8.714;2023-12-14T08:08:20;99037.31;;;9.86;77.37
7532;BME280;3807;49.030;8.714;2023-12-14T08:10:45;99036.16;;;9.94;76.73
7532;BME280;3807;49.030;8.714;2023-12-14T08:13:10;99045.56;;;10.16;76.64
7532;BME280;3807;49.030;8.714;2023-12-14T08:15:36;99046.56;;;10.12;76.71
7532;BME280;3807;49.030;8.714;2023-12-14T08:18:01;99048.94;;;10.16;76.75
7532;BME280;3807;49.030;8.714;2023-12-14T08:20:27;99060.19;;;9.86;77.70
7532;BME280;3807;49.030;8.714;2023-12-14T08:22:52;99061.94;;;10.09;76.62
7532;BME280;3807;49.030;8.714;2023-12-14T08:25:18;99067.44;;;9.96;77.18
7532;BME280;3807;49.030;8.714;2023-12-14T08:27:43;99074.78;;;10.06;76.62
7532;BME280;3807;49.030;8.714;2023-12-14T08:30:12;99075.31;;;9.90;77.08
7532;BME280;3807;49.030;8.714;2023-12-14T08:32:38;99082.31;;;9.84;77.20
7532;BME280;3807;49.030;8.714;2023-12-14T08:35:04;99093.72;;;9.97;76.94
7532;BME280;3807;49.030;8.714;2023-12-14T08:37:29;99094.81;;;9.90;77.49
7532;BME280;3807;49.030;8.714;2023-12-14T08:39:55;99101.09;;;9.79;77.16
7532;BME280;3807;49.030;8.714;2023-12-14T08:42:21;99107.59;;;9.88;76.85
7532;BME280;3807;49.030;8.714;2023-12-14T08:44:46;99109.25;;;9.89;77.57
7532;BME280;3807;49.030;8.714;2023-12-14T08:47:11;99116.56;;;9.73;79.17
7532;BME280;3807;49.030;8.714;2023-12-14T08:49:37;99120.84;;;9.73;79.05
7532;BME280;3807;49.030;8.714;2023-12-14T08:52:02;99119.63;;;10.08;78.14
7532;BME280;3807;49.030;8.714;2023-12-14T08:54:29;99134.22;;;9.78;78.74
7532;BME280;3807;49.030;8.714;2023-12-14T08:56:54;99134.69;;;9.89;77.80
7532;BME280;3807;49.030;8.714;2023-12-14T08:59:20;99145.94;;;9.82;78.31
7532;BME280;3807;49.030;8.714;2023-12-14T09:01:45;99143.47;;;9.81;78.39
7532;BME280;3807;49.030;8.714;2023-12-14T09:04:11;99149.28;;;9.84;77.96
7532;BME280;3807;49.030;8.714;2023-12-14T09:06:36;99146.25;;;9.73;78.91
7532;BME280;3807;49.030;8.714;2023-12-14T09:09:02;99160.53;;;9.77;78.33
7532;BME280;3807;49.030;8.714;2023-12-14T09:11:28;99162.81;;;9.85;78.61
7532;BME280;3807;49.030;8.714;2023-12-14T09:13:54;99165.19;;;9.89;78.61
7532;BME280;3807;49.030;8.714;2023-12-14T09:16:19;99170.88;;;9.97;78.14
7532;BME280;3807;49.030;8.714;2023-12-14T09:18:45;99178.88;;;9.87;78.75
7532;BME280;3807;49.030;8.714;2023-12-14T09:21:10;99182.44;;;9.81;78.04
7532;BME280;3807;49.030;8.714;2023-12-14T09:23:36;99187.16;;;9.92;78.19
7532;BME280;3807;49.030;8.714;2023-12-14T09:26:01;99186.28;;;9.93;77.77
7532;BME280;3807;49.030;8.714;2023-12-14T09:28:26;99193.19;;;9.89;78.21
7532;BME280;3807;49.030;8.714;2023-12-14T09:30:52;99204.81;;;9.96;77.35
7532;BME280;3807;49.030;8.714;2023-12-14T09:33:17;99202.81;;;9.79;77.79
7532;BME280;3807;49.030;8.714;2023-12-14T09:35:43;99206.63;;;9.93;77.70
7532;BME280;3807;49.030;8.714;2023-12-14T09:38:09;99206.63;;;9.93;77.50
7532;BME280;3807;49.030;8.714;2023-12-14T09:40:34;99215.59;;;10.05;77.66
7532;BME280;3807;49.030;8.714;2023-12-14T09:43:00;99219.72;;;10.07;77.10
7532;BME280;3807;49.030;8.714;2023-12-14T09:45:29;99222.78;;;9.92;77.94
7532;BME280;3807;49.030;8.714;2023-12-14T09:47:59;99227.78;;;9.95;77.55
7532;BME280;3807;49.030;8.714;2023-12-14T09:50:25;99229.59;;;9.91;78.82
7532;BME280;3807;49.030;8.714;2023-12-14T09:52:51;99238.31;;;9.83;78.88
7532;BME280;3807;49.030;8.714;2023-12-14T09:55:16;99240.41;;;9.98;78.45
7532;BME280;3807;49.030;8.714;2023-12-14T09:57:42;99244.88;;;9.90;79.11
7532;BME280;3807;49.030;8.714;2023-12-14T10:00:08;99236.16;;;9.97;78.08
7532;BME280;3807;49.030;8.714;2023-12-14T10:02:39;99249.53;;;10.03;78.27
7532;BME280;3807;49.030;8.714;2023-12-14T10:05:09;99249.69;;;9.99;78.19
7532;BME280;3807;49.030;8.714;2023-12-14T10:07:41;99253.78;;;10.03;77.61
7532;BME280;3807;49.030;8.714;2023-12-14T10:10:12;99260.78;;;9.96;78.20
7532;BME280;3807;49.030;8.714;2023-12-14T10:12:52;99260.53;;;10.04;78.08
7532;BME280;3807;49.030;8.714;2023-12-14T10:15:18;99267.69;;;9.93;78.56
7532;BME280;3807;49.030;8.714;2023-12-14T10:17:43;99264.94;;;9.99;77.91
7532;BME280;3807;49.030;8.714;2023-12-14T10:20:09;99274.09;;;10.05;77.85
7532;BME280;3807;49.030;8.714;2023-12-14T10:22:35;99265.69;;;10.02;77.60
7532;BME280;3807;49.030;8.714;2023-12-14T10:25:02;99275.06;;;10.00;78.20
7532;BME280;3807;49.030;8.714;2023-12-14T10:27:29;99272.47;;;10.02;78.33
7532;BME280;3807;49.030;8.714;2023-12-14T10:29:55;99272.41;;;10.03;78.02
7532;BME280;3807;49.030;8.714;2023-12-14T10:32:21;99273.25;;;10.04;77.85
7532;BME280;3807;49.030;8.714;2023-12-14T10:34:48;99274.00;;;10.08;77.96
7532;BME280;3807;49.030;8.714;2023-12-14T10:37:13;99273.06;;;10.10;77.84
7532;BME280;3807;49.030;8.714;2023-12-14T10:39:42;99274.88;;;10.07;78.70
7532;BME280;3807;49.030;8.714;2023-12-14T10:42:08;99283.50;;;10.02;78.02
7532;BME280;3807;49.030;8.714;2023-12-14T10:44:36;99280.22;;;9.99;78.01
7532;BME280;3807;49.030;8.714;2023-12-14T10:47:03;99281.50;;;10.12;78.16
7532;BME280;3807;49.030;8.714;2023-12-14T10:49:31;99278.94;;;10.12;78.77
7532;BME280;3807;49.030;8.714;2023-12-14T10:51:59;99284.13;;;10.09;79.21
7532;BME280;3807;49.030;8.714;2023-12-14T10:54:26;99285.00;;;10.08;78.96
7532;BME280;3807;49.030;8.714;2023-12-14T10:56:55;99294.03;;;10.18;78.44
7532;BME280;3807;49.030;8.714;2023-12-14T10:59:21;99300.78;;;10.18;78.17
7532;BME280;3807;49.030;8.714;2023-12-14T11:01:52;99303.41;;;10.16;78.81
7532;BME280;3807;49.030;8.714;2023-12-14T11:04:18;99299.22;;;10.15;79.26
7532;BME280;3807;49.030;8.714;2023-12-14T11:06:45;99295.84;;;10.15;78.94
7532;BME280;3807;49.030;8.714;2023-12-14T11:09:13;99304.03;;;10.23;78.47
7532;BME280;3807;49.030;8.714;2023-12-14T11:14:23;99303.97;;;10.26;77.45
7532;BME280;3807;49.030;8.714;2023-12-14T11:16:50;99310.94;;;10.19;77.70
7532;BME280;3807;49.030;8.714;2023-12-14T11:21:48;99320.06;;;10.27;77.64
7532;BME280;3807;49.030;8.714;2023-12-14T11:24:13;99324.34;;;10.26;77.62
7532;BME280;3807;49.030;8.714;2023-12-14T11:26:40;99325.22;;;10.23;78.18
7532;BME280;3807;49.030;8.714;2023-12-14T11:29:06;99334.47;;;10.28;77.46
7532;BME280;3807;49.030;8.714;2023-12-14T11:31:32;99331.88;;;10.29;77.75
7532;BME280;3807;49.030;8.714;2023-12-14T11:33:58;99338.56;;;10.32;78.21
7532;BME280;3807;49.030;8.714;2023-12-14T11:36:26;99347.78;;;10.36;77.84
7532;BME280;3807;49.030;8.714;2023-12-14T11:38:51;99352.03;;;10.35;77.56
7532;BME280;3807;49.030;8.714;2023-12-14T11:41:20;99352.03;;;10.35;77.55
7532;BME280;3807;49.030;8.714;2023-12-14T11:43:46;99356.28;;;10.35;78.06
7532;BME280;3807;49.030;8.714;2023-12-14T11:46:11;99355.47;;;10.34;78.81
7532;BME280;3807;49.030;8.714;2023-12-14T11:48:37;99352.81;;;10.37;78.07
7532;BME280;3807;49.030;8.714;2023-12-14T11:51:02;99367.34;;;10.34;78.22
7532;BME280;3807;49.030;8.714;2023-12-14T11:53:29;99363.84;;;10.38;78.54
7532;BME280;3807;49.030;8.714;2023-12-14T11:55:55;99368.94;;;10.38;77.80
7532;BME280;3807;49.030;8.714;2023-12-14T11:58:20;99366.28;;;10.41;77.54
7532;BME280;3807;49.030;8.714;2023-12-14T12:00:45;99366.34;;;10.39;77.91
7532;BME280;3807;49.030;8.714;2023-12-14T12:03:16;99365.47;;;10.40;77.98
7532;BME280;3807;49.030;8.714;2023-12-14T12:05:46;99370.47;;;10.42;78.70
7532;BME280;3807;49.030;8.714;2023-12-14T12:08:13;99371.31;;;10.42;79.03
7532;BME280;3807;49.030;8.714;2023-12-14T12:10:39;99374.00;;;10.38;78.51
7532;BME280;3807;49.030;8.714;2023-12-14T12:13:11;99375.72;;;10.37;79.11
7532;BME280;3807;49.030;8.714;2023-12-14T12:15:36;99385.00;;;10.40;79.32
7532;BME280;3807;49.030;8.714;2023-12-14T12:18:03;99388.47;;;10.37;78.81
7532;BME280;3807;49.030;8.714;2023-12-14T12:20:29;99387.78;;;10.32;78.89
7532;BME280;3807;49.030;8.714;2023-12-14T12:22:54;99393.63;;;10.36;78.96
7532;BME280;3807;49.030;8.714;2023-12-14T12:25:20;99385.09;;;10.37;78.15
7532;BME280;3807;49.030;8.714;2023-12-14T12:27:46;99394.13;;;10.45;78.22
7532;BME280;3807;49.030;8.714;2023-12-14T12:30:12;99386.59;;;10.42;78.36
7532;BME280;3807;49.030;8.714;2023-12-14T12:32:38;99389.03;;;10.45;78.02
7532;BME280;3807;49.030;8.714;2023-12-14T12:35:03;99396.66;;;10.47;78.04
7532;BME280;3807;49.030;8.714;2023-12-14T12:37:29;99395.91;;;10.43;78.72
7532;BME280;3807;49.030;8.714;2023-12-14T12:39:54;99393.38;;;10.43;78.72
7532;BME280;3807;49.030;8.714;2023-12-14T12:42:19;99396.66;;;10.47;77.76
7532;BME280;3807;49.030;8.714;2023-12-14T12:44:46;99396.78;;;10.42;78.73
7532;BME280;3807;49.030;8.714;2023-12-14T12:47:12;99397.56;;;10.44;78.21
7532;BME280;3807;49.030;8.714;2023-12-14T12:49:37;99400.09;;;10.46;78.15
7532;BME280;3807;49.030;8.714;2023-12-14T12:52:03;99405.94;;;10.48;78.57
7532;BME280;3807;49.030;8.714;2023-12-14T12:54:31;99410.31;;;10.44;79.17
7532;BME280;3807;49.030;8.714;2023-12-14T12:56:56;99411.84;;;10.50;77.38
7532;BME280;3807;49.030;8.714;2023-12-14T12:59:21;99408.56;;;10.46;78.96
7532;BME280;3807;49.030;8.714;2023-12-14T13:01:47;99408.50;;;10.48;79.00
7532;BME280;3807;49.030;8.714;2023-12-14T13:04:20;99407.72;;;10.46;79.29
7532;BME280;3807;49.030;8.714;2023-12-14T13:06:47;99411.13;;;10.45;79.23
7532;BME280;3807;49.030;8.714;2023-12-14T13:09:13;99412.69;;;10.49;78.23
7532;BME280;3807;49.030;8.714;2023-12-14T13:11:39;99413.97;;;10.36;79.10
7532;BME280;3807;49.030;8.714;2023-12-14T13:14:04;99420.31;;;10.49;78.71
7532;BME280;3807;49.030;8.714;2023-12-14T13:16:36;99425.47;;;10.47;78.78
7532;BME280;3807;49.030;8.714;2023-12-14T13:19:01;99417.13;;;10.42;78.81
7532;BME280;3807;49.030;8.714;2023-12-14T13:21:29;99424.16;;;10.36;79.59
7532;BME280;3807;49.030;8.714;2023-12-14T13:23:54;99431.59;;;10.42;79.63
7532;BME280;3807;49.030;8.714;2023-12-14T13:26:21;99433.91;;;10.49;78.53
7532;BME280;3807;49.030;8.714;2023-12-14T13:28:47;99439.88;;;10.48;78.44